sensor_id;sensor_type;location;lat;lon;timestamp;P1;durP1;ratioP1;P2;durP2;ratioP2
15177;SDS011;7689;53.612;-2.416;2022-07-17T00:00:26;4.38;;;4.07;;
15177;SDS011;7689;53.612;-2.416;2022-07-17T00:02:51;4.43;;;3.97;;
15177;SDS011;7689;53.612;-2.416;2022-07-17T00:05:17;4.18;;;3.88;;
15177;SDS011;7689;53.612;-2.416;2022-07-17T00:07:43;4.30;;;4.00;;
15177;SDS011;7689;53.612;-2.416;2022-07-17T00:10:12;3.72;;;3.53;;
15177;SDS011;7689;53.612;-2.416;2022-07-17T00:12:37;3.55;;;3.35;;
15177;SDS011;7689;53.612;-2.416;2022-07-17T00:15:03;3.88;;;3.63;;
15177;SDS011;7689;53.612;-2.416;2022-07-17T00:17:29;4.47;;;3.95;;
15177;SDS011;7689;53.612;-2.416;2022-07-17T00:19:55;4.05;;;3.75;;
15177;SDS011;7689;53.612;-2.416;2022-07-17T00:22:21;3.80;;;3.50;;
15177;SDS011;7689;53.612;-2.416;2022-07-17T00:24:46;4.15;;;3.75;;
15177;SDS011;7689;53.612;-2.416;2022-07-17T00:27:13;4.03;;;3.72;;
15177;SDS011;7689;53.612;-2.416;2022-07-17T00:29:38;4.15;;;3.85;;
15177;SDS011;7689;53.612;-2.416;2022-07-17T00:32:04;3.97;;;3.63;;
15177;SDS011;7689;53.612;-2.416;2022-07-17T00:34:30;3.85;;;3.55;;
15177;SDS011;7689;53.612;-2.416;2022-07-17T00:36:55;4.10;;;3.70;;
15177;SDS011;7689;53.612;-2.416;2022-07-17T00:39:21;3.78;;;3.33;;
15177;SDS011;7689;53.612;-2.416;2022-07-17T00:41:47;3.40;;;3.13;;
15177;SDS011;7689;53.612;-2.416;2022-07-17T00:44:12;4.50;;;3.67;;
15177;SDS011;7689;53.612;-2.416;2022-07-17T00:46:38;3.72;;;3.42;;
15177;SDS011;7689;53.612;-2.416;2022-07-17T00:49:04;3.30;;;3.10;;
15177;SDS011;7689;53.612;-2.416;2022-07-17T00:51:31;3.35;;;3.15;;
15177;SDS011;7689;53.612;-2.416;2022-07-17T00:53:57;3.50;;;3.20;;
15177;SDS011;7689;53.612;-2.416;2022-07-17T00:56:24;3.90;;;3.60;;
15177;SDS011;7689;53.612;-2.416;2022-07-17T00:58:50;4.05;;;3.75;;
15177;SDS011;7689;53.612;-2.416;2022-07-17T01:01:16;4.55;;;3.47;;
15177;SDS011;7689;53.612;-2.416;2022-07-17T01:03:42;4.15;;;3.75;;
15177;SDS011;7689;53.612;-2.416;2022-07-17T01:06:08;4.10;;;3.80;;
15177;SDS011;7689;53.612;-2.416;2022-07-17T01:08:34;4.05;;;3.70;;
15177;SDS011;7689;53.612;-2.416;2022-07-17T01:11:01;3.72;;;3.50;;
15177;SDS011;7689;53.612;-2.416;2022-07-17T01:13:27;4.38;;;3.80;;
15177;SDS011;7689;53.612;-2.416;2022-07-17T01:15:53;5.63;;;3.83;;
15177;SDS011;7689;53.612;-2.416;2022-07-17T01:18:19;3.70;;;3.50;;
15177;SDS011;7689;53.612;-2.416;2022-07-17T01:20:46;4.15;;;3.58;;
15177;SDS011;7689;53.612;-2.416;2022-07-17T01:23:14;3.53;;;3.33;;
15177;SDS011;7689;53.612;-2.416;2022-07-17T01:25:40;4.28;;;3.90;;
15177;SDS011;7689;53.612;-2.416;2022-07-17T01:28:06;4.57;;;4.00;;
15177;SDS011;7689;53.612;-2.416;2022-07-17T01:30:33;3.75;;;3.53;;
15177;SDS011;7689;53.612;-2.416;2022-07-17T01:32:59;3.75;;;3.45;;
15177;SDS011;7689;53.612;-2.416;2022-07-17T01:35:25;3.13;;;2.92;;
15177;SDS011;7689;53.612;-2.416;2022-07-17T01:37:51;4.25;;;3.63;;
15177;SDS011;7689;53.612;-2.416;2022-07-17T01:40:16;4.13;;;3.83;;
15177;SDS011;7689;53.612;-2.416;2022-07-17T01:42:45;3.80;;;3.55;;
15177;SDS011;7689;53.612;-2.416;2022-07-17T01:45:13;3.90;;;3.60;;
15177;SDS011;7689;53.612;-2.416;2022-07-17T01:47:39;4.57;;;3.85;;
15177;SDS011;7689;53.612;-2.416;2022-07-17T01:50:06;4.47;;;4.00;;
15177;SDS011;7689;53.612;-2.416;2022-07-17T01:52:35;4.57;;;4.03;;
15177;SDS011;7689;53.612;-2.416;2022-07-17T01:55:03;4.00;;;3.60;;
15177;SDS011;7689;53.612;-2.416;2022-07-17T01:57:33;3.92;;;3.72;;
15177;SDS011;7689;53.612;-2.416;2022-07-17T01:59:59;4.80;;;4.38;;
15177;SDS011;7689;53.612;-2.416;2022-07-17T02:02:25;4.20;;;3.90;;
15177;SDS011;7689;53.612;-2.416;2022-07-17T02:04:51;4.78;;;3.70;;
15177;SDS011;7689;53.612;-2.416;2022-07-17T02:07:17;4.70;;;4.30;;
15177;SDS011;7689;53.612;-2.416;2022-07-17T02:09:42;4.97;;;4.15;;
15177;SDS011;7689;53.612;-2.416;2022-07-17T02:12:08;4.97;;;4.45;;
15177;SDS011;7689;53.612;-2.416;2022-07-17T02:14:34;6.55;;;4.10;;
15177;SDS011;7689;53.612;-2.416;2022-07-17T02:17:00;4.90;;;4.50;;
15177;SDS011;7689;53.612;-2.416;2022-07-17T02:19:26;4.50;;;4.10;;
15177;SDS011;7689;53.612;-2.416;2022-07-17T02:21:52;5.72;;;4.20;;
15177;SDS011;7689;53.612;-2.416;2022-07-17T02:24:18;5.05;;;4.55;;
15177;SDS011;7689;53.612;-2.416;2022-07-17T02:26:44;4.70;;;4.28;;
15177;SDS011;7689;53.612;-2.416;2022-07-17T02:29:09;4.72;;;4.32;;
15177;SDS011;7689;53.612;-2.416;2022-07-17T02:31:35;4.65;;;4.15;;
15177;SDS011;7689;53.612;-2.416;2022-07-17T02:34:01;4.93;;;4.43;;
15177;SDS011;7689;53.612;-2.416;2022-07-17T02:36:26;4.22;;;3.92;;
15177;SDS011;7689;53.612;-2.416;2022-07-17T02:38:52;4.45;;;4.05;;
15177;SDS011;7689;53.612;-2.416;2022-07-17T02:41:18;4.90;;;4.38;;
15177;SDS011;7689;53.612;-2.416;2022-07-17T02:43:43;4.38;;;3.88;;
15177;SDS011;7689;53.612;-2.416;2022-07-17T02:46:09;5.15;;;4.35;;
15177;SDS011;7689;53.612;-2.416;2022-07-17T02:48:35;6.22;;;4.55;;
15177;SDS011;7689;53.612;-2.416;2022-07-17T02:51:00;4.75;;;4.35;;
15177;SDS011;7689;53.612;-2.416;2022-07-17T02:53:26;8.70;;;4.80;;
15177;SDS011;7689;53.612;-2.416;2022-07-17T02:55:52;5.22;;;4.72;;
15177;SDS011;7689;53.612;-2.416;2022-07-17T02:58:18;4.85;;;4.45;;
15177;SDS011;7689;53.612;-2.416;2022-07-17T03:00:44;4.38;;;3.97;;
15177;SDS011;7689;53.612;-2.416;2022-07-17T03:03:09;5.10;;;4.65;;
15177;SDS011;7689;53.612;-2.416;2022-07-17T03:05:35;4.93;;;4.53;;
15177;SDS011;7689;53.612;-2.416;2022-07-17T03:08:01;5.28;;;4.82;;
15177;SDS011;7689;53.612;-2.416;2022-07-17T03:10:26;4.75;;;4.35;;
15177;SDS011;7689;53.612;-2.416;2022-07-17T03:12:52;4.70;;;4.30;;
15177;SDS011;7689;53.612;-2.416;2022-07-17T03:15:18;5.15;;;4.65;;
15177;SDS011;7689;53.612;-2.416;2022-07-17T03:17:43;4.82;;;4.38;;
15177;SDS011;7689;53.612;-2.416;2022-07-17T03:20:09;5.03;;;4.63;;
15177;SDS011;7689;53.612;-2.416;2022-07-17T03:22:35;5.03;;;4.53;;
15177;SDS011;7689;53.612;-2.416;2022-07-17T03:25:01;4.20;;;3.90;;
15177;SDS011;7689;53.612;-2.416;2022-07-17T03:27:27;4.60;;;4.30;;
15177;SDS011;7689;53.612;-2.416;2022-07-17T03:29:53;5.05;;;4.65;;
15177;SDS011;7689;53.612;-2.416;2022-07-17T03:32:19;4.95;;;4.45;;
15177;SDS011;7689;53.612;-2.416;2022-07-17T03:34:45;4.50;;;4.20;;
15177;SDS011;7689;53.612;-2.416;2022-07-17T03:37:11;5.90;;;4.50;;
15177;SDS011;7689;53.612;-2.416;2022-07-17T03:39:37;4.53;;;4.13;;
15177;SDS011;7689;53.612;-2.416;2022-07-17T03:42:02;4.72;;;4.38;;
15177;SDS011;7689;53.612;-2.416;2022-07-17T03:44:28;5.40;;;5.00;;
15177;SDS011;7689;53.612;-2.416;2022-07-17T03:46:54;5.82;;;4.85;;
15177;SDS011;7689;53.612;-2.416;2022-07-17T03:49:20;5.18;;;4.70;;
15177;SDS011;7689;53.612;-2.416;2022-07-17T03:51:45;4.90;;;4.50;;
15177;SDS011;7689;53.612;-2.416;2022-07-17T03:54:11;5.38;;;4.97;;
15177;SDS011;7689;53.612;-2.416;2022-07-17T03:56:37;5.07;;;4.68;;
15177;SDS011;7689;53.612;-2.416;2022-07-17T03:59:02;5.20;;;4.80;;
15177;SDS011;7689;53.612;-2.416;2022-07-17T04:01:28;5.10;;;4.70;;
15177;SDS011;7689;53.612;-2.416;2022-07-17T04:03:54;4.70;;;4.30;;
15177;SDS011;7689;53.612;-2.416;2022-07-17T04:06:19;5.63;;;5.20;;
15177;SDS011;7689;53.612;-2.416;2022-07-17T04:08:45;4.93;;;4.53;;
15177;SDS011;7689;53.612;-2.416;2022-07-17T04:11:11;5.25;;;4.80;;
15177;SDS011;7689;53.612;-2.416;2022-07-17T04:13:36;5.00;;;4.60;;
15177;SDS011;7689;53.612;-2.416;2022-07-17T04:16:02;5.43;;;5.00;;
15177;SDS011;7689;53.612;-2.416;2022-07-17T04:18:29;5.20;;;4.82;;
15177;SDS011;7689;53.612;-2.416;2022-07-17T04:20:57;4.72;;;4.32;;
15177;SDS011;7689;53.612;-2.416;2022-07-17T04:23:27;5.35;;;4.95;;
15177;SDS011;7689;53.612;-2.416;2022-07-17T04:25:53;6.82;;;4.72;;
15177;SDS011;7689;53.612;-2.416;2022-07-17T04:28:19;5.07;;;4.47;;
15177;SDS011;7689;53.612;-2.416;2022-07-17T04:30:46;4.70;;;4.30;;
15177;SDS011;7689;53.612;-2.416;2022-07-17T04:33:11;4.70;;;4.40;;
15177;SDS011;7689;53.612;-2.416;2022-07-17T04:35:37;4.85;;;4.45;;
15177;SDS011;7689;53.612;-2.416;2022-07-17T04:38:04;4.95;;;4.55;;
15177;SDS011;7689;53.612;-2.416;2022-07-17T04:40:31;5.03;;;4.63;;
15177;SDS011;7689;53.612;-2.416;2022-07-17T04:42:57;5.32;;;4.82;;
15177;SDS011;7689;53.612;-2.416;2022-07-17T04:45:22;5.18;;;4.53;;
15177;SDS011;7689;53.612;-2.416;2022-07-17T04:47:48;5.40;;;4.90;;
15177;SDS011;7689;53.612;-2.416;2022-07-17T04:50:14;5.70;;;5.20;;
15177;SDS011;7689;53.612;-2.416;2022-07-17T04:52:39;4.70;;;4.30;;
15177;SDS011;7689;53.612;-2.416;2022-07-17T04:55:05;5.10;;;4.70;;
15177;SDS011;7689;53.612;-2.416;2022-07-17T04:57:31;5.20;;;4.70;;
15177;SDS011;7689;53.612;-2.416;2022-07-17T04:59:57;5.05;;;4.65;;
15177;SDS011;7689;53.612;-2.416;2022-07-17T05:02:22;5.07;;;4.68;;
15177;SDS011;7689;53.612;-2.416;2022-07-17T05:04:48;4.95;;;4.55;;
15177;SDS011;7689;53.612;-2.416;2022-07-17T05:07:14;4.85;;;4.43;;
15177;SDS011;7689;53.612;-2.416;2022-07-17T05:09:40;5.13;;;4.72;;
15177;SDS011;7689;53.612;-2.416;2022-07-17T05:12:06;5.30;;;4.80;;
15177;SDS011;7689;53.612;-2.416;2022-07-17T05:14:33;5.00;;;4.60;;
15177;SDS011;7689;53.612;-2.416;2022-07-17T05:16:59;5.40;;;4.90;;
15177;SDS011;7689;53.612;-2.416;2022-07-17T05:19:25;5.25;;;4.75;;
15177;SDS011;7689;53.612;-2.416;2022-07-17T05:21:51;6.30;;;4.75;;
15177;SDS011;7689;53.612;-2.416;2022-07-17T05:24:17;4.65;;;4.25;;
15177;SDS011;7689;53.612;-2.416;2022-07-17T05:26:43;4.85;;;4.38;;
15177;SDS011;7689;53.612;-2.416;2022-07-17T05:29:08;4.50;;;4.20;;
15177;SDS011;7689;53.612;-2.416;2022-07-17T05:31:34;5.22;;;4.65;;
15177;SDS011;7689;53.612;-2.416;2022-07-17T05:33:59;4.78;;;4.38;;
15177;SDS011;7689;53.612;-2.416;2022-07-17T05:36:25;5.07;;;4.68;;
15177;SDS011;7689;53.612;-2.416;2022-07-17T05:38:51;4.50;;;4.20;;
15177;SDS011;7689;53.612;-2.416;2022-07-17T05:41:17;4.78;;;4.38;;
15177;SDS011;7689;53.612;-2.416;2022-07-17T05:43:42;4.88;;;4.47;;
15177;SDS011;7689;53.612;-2.416;2022-07-17T05:46:08;4.68;;;4.35;;
15177;SDS011;7689;53.612;-2.416;2022-07-17T05:48:33;5.50;;;5.00;;
15177;SDS011;7689;53.612;-2.416;2022-07-17T05:50:59;4.95;;;4.47;;
15177;SDS011;7689;53.612;-2.416;2022-07-17T05:53:25;4.25;;;3.95;;
15177;SDS011;7689;53.612;-2.416;2022-07-17T05:55:51;5.40;;;4.93;;
15177;SDS011;7689;53.612;-2.416;2022-07-17T05:58:17;6.18;;;5.03;;
15177;SDS011;7689;53.612;-2.416;2022-07-17T06:00:43;6.07;;;5.57;;
15177;SDS011;7689;53.612;-2.416;2022-07-17T06:03:09;5.40;;;4.95;;
15177;SDS011;7689;53.612;-2.416;2022-07-17T06:05:35;7.55;;;5.03;;
15177;SDS011;7689;53.612;-2.416;2022-07-17T06:08:01;5.93;;;5.32;;
15177;SDS011;7689;53.612;-2.416;2022-07-17T06:10:27;5.32;;;4.93;;
15177;SDS011;7689;53.612;-2.416;2022-07-17T06:12:53;5.72;;;5.10;;
15177;SDS011;7689;53.612;-2.416;2022-07-17T06:15:20;5.30;;;4.80;;
15177;SDS011;7689;53.612;-2.416;2022-07-17T06:17:46;5.57;;;5.07;;
15177;SDS011;7689;53.612;-2.416;2022-07-17T06:20:13;4.95;;;4.55;;
15177;SDS011;7689;53.612;-2.416;2022-07-17T06:22:39;5.22;;;4.82;;
15177;SDS011;7689;53.612;-2.416;2022-07-17T06:25:06;5.30;;;4.88;;
15177;SDS011;7689;53.612;-2.416;2022-07-17T06:27:32;5.53;;;5.13;;
15177;SDS011;7689;53.612;-2.416;2022-07-17T06:29:58;6.05;;;5.45;;
15177;SDS011;7689;53.612;-2.416;2022-07-17T06:32:23;8.23;;;6.38;;
15177;SDS011;7689;53.612;-2.416;2022-07-17T06:34:49;7.03;;;6.35;;
15177;SDS011;7689;53.612;-2.416;2022-07-17T06:37:15;6.90;;;6.15;;
15177;SDS011;7689;53.612;-2.416;2022-07-17T06:39:41;8.27;;;6.53;;
15177;SDS011;7689;53.612;-2.416;2022-07-17T06:42:06;6.95;;;6.35;;
15177;SDS011;7689;53.612;-2.416;2022-07-17T06:44:32;7.20;;;6.50;;
15177;SDS011;7689;53.612;-2.416;2022-07-17T06:46:59;7.60;;;6.88;;
15177;SDS011;7689;53.612;-2.416;2022-07-17T06:49:24;8.82;;;7.38;;
15177;SDS011;7689;53.612;-2.416;2022-07-17T06:51:50;8.35;;;7.55;;
15177;SDS011;7689;53.612;-2.416;2022-07-17T06:54:16;7.93;;;7.13;;
15177;SDS011;7689;53.612;-2.416;2022-07-17T06:56:42;9.00;;;8.10;;
15177;SDS011;7689;53.612;-2.416;2022-07-17T06:59:08;9.02;;;7.85;;
15177;SDS011;7689;53.612;-2.416;2022-07-17T07:01:34;8.88;;;7.85;;
15177;SDS011;7689;53.612;-2.416;2022-07-17T07:04:01;9.05;;;8.07;;
15177;SDS011;7689;53.612;-2.416;2022-07-17T07:06:27;9.18;;;8.25;;
15177;SDS011;7689;53.612;-2.416;2022-07-17T07:08:53;11.35;;;8.77;;
15177;SDS011;7689;53.612;-2.416;2022-07-17T07:11:20;10.15;;;9.07;;
15177;SDS011;7689;53.612;-2.416;2022-07-17T07:13:46;9.30;;;8.32;;
15177;SDS011;7689;53.612;-2.416;2022-07-17T07:16:11;9.90;;;8.85;;
15177;SDS011;7689;53.612;-2.416;2022-07-17T07:18:37;10.02;;;9.00;;
15177;SDS011;7689;53.612;-2.416;2022-07-17T07:21:03;9.55;;;8.55;;
15177;SDS011;7689;53.612;-2.416;2022-07-17T07:23:28;10.07;;;8.63;;
15177;SDS011;7689;53.612;-2.416;2022-07-17T07:25:54;10.63;;;8.52;;
15177;SDS011;7689;53.612;-2.416;2022-07-17T07:28:20;9.25;;;8.35;;
15177;SDS011;7689;53.612;-2.416;2022-07-17T07:30:46;12.82;;;8.73;;
15177;SDS011;7689;53.612;-2.416;2022-07-17T07:33:12;9.48;;;8.57;;
15177;SDS011;7689;53.612;-2.416;2022-07-17T07:35:37;9.95;;;8.90;;
15177;SDS011;7689;53.612;-2.416;2022-07-17T07:38:03;9.88;;;8.88;;
15177;SDS011;7689;53.612;-2.416;2022-07-17T07:40:29;10.52;;;8.70;;
15177;SDS011;7689;53.612;-2.416;2022-07-17T07:42:56;8.40;;;7.60;;
15177;SDS011;7689;53.612;-2.416;2022-07-17T07:45:22;15.45;;;9.07;;
15177;SDS011;7689;53.612;-2.416;2022-07-17T07:47:49;10.15;;;9.15;;
15177;SDS011;7689;53.612;-2.416;2022-07-17T07:50:16;9.32;;;8.30;;
15177;SDS011;7689;53.612;-2.416;2022-07-17T07:52:43;9.00;;;8.20;;
15177;SDS011;7689;53.612;-2.416;2022-07-17T07:55:10;8.90;;;7.97;;
15177;SDS011;7689;53.612;-2.416;2022-07-17T07:57:36;10.63;;;8.48;;
15177;SDS011;7689;53.612;-2.416;2022-07-17T08:00:05;9.38;;;8.48;;
15177;SDS011;7689;53.612;-2.416;2022-07-17T08:02:33;9.00;;;8.10;;
15177;SDS011;7689;53.612;-2.416;2022-07-17T08:04:59;8.68;;;7.32;;
15177;SDS011;7689;53.612;-2.416;2022-07-17T08:07:25;8.40;;;7.60;;
15177;SDS011;7689;53.612;-2.416;2022-07-17T08:09:52;8.68;;;7.88;;
15177;SDS011;7689;53.612;-2.416;2022-07-17T08:12:18;8.80;;;7.90;;
15177;SDS011;7689;53.612;-2.416;2022-07-17T08:14:44;9.25;;;7.57;;
15177;SDS011;7689;53.612;-2.416;2022-07-17T08:17:09;7.82;;;7.13;;
15177;SDS011;7689;53.612;-2.416;2022-07-17T08:19:36;10.73;;;7.72;;
15177;SDS011;7689;53.612;-2.416;2022-07-17T08:22:02;8.57;;;7.68;;
15177;SDS011;7689;53.612;-2.416;2022-07-17T08:24:27;9.82;;;7.70;;
15177;SDS011;7689;53.612;-2.416;2022-07-17T08:26:53;10.55;;;7.78;;
15177;SDS011;7689;53.612;-2.416;2022-07-17T08:29:19;8.45;;;7.35;;
15177;SDS011;7689;53.612;-2.416;2022-07-17T08:31:44;7.45;;;6.75;;
15177;SDS011;7689;53.612;-2.416;2022-07-17T08:34:10;7.22;;;6.60;;
15177;SDS011;7689;53.612;-2.416;2022-07-17T08:36:36;7.85;;;7.15;;
15177;SDS011;7689;53.612;-2.416;2022-07-17T08:39:02;8.27;;;7.47;;
15177;SDS011;7689;53.612;-2.416;2022-07-17T08:41:28;7.68;;;6.97;;
15177;SDS011;7689;53.612;-2.416;2022-07-17T08:43:55;7.47;;;6.78;;
15177;SDS011;7689;53.612;-2.416;2022-07-17T08:46:24;8.10;;;7.18;;
15177;SDS011;7689;53.612;-2.416;2022-07-17T08:48:52;8.02;;;7.22;;
15177;SDS011;7689;53.612;-2.416;2022-07-17T08:51:25;7.68;;;6.97;;
15177;SDS011;7689;53.612;-2.416;2022-07-17T08:53:52;8.27;;;7.47;;
15177;SDS011;7689;53.612;-2.416;2022-07-17T08:56:19;7.38;;;6.68;;
15177;SDS011;7689;53.612;-2.416;2022-07-17T08:58:45;7.57;;;6.78;;
15177;SDS011;7689;53.612;-2.416;2022-07-17T09:01:11;7.97;;;7.28;;
15177;SDS011;7689;53.612;-2.416;2022-07-17T09:03:38;7.30;;;6.60;;
15177;SDS011;7689;53.612;-2.416;2022-07-17T09:06:16;8.48;;;6.47;;
15177;SDS011;7689;53.612;-2.416;2022-07-17T09:08:46;9.63;;;6.70;;
15177;SDS011;7689;53.612;-2.416;2022-07-17T09:11:11;8.70;;;7.03;;
15177;SDS011;7689;53.612;-2.416;2022-07-17T09:13:41;7.10;;;6.25;;
15177;SDS011;7689;53.612;-2.416;2022-07-17T09:16:10;7.35;;;6.53;;
15177;SDS011;7689;53.612;-2.416;2022-07-17T09:21:22;8.43;;;7.43;;
15177;SDS011;7689;53.612;-2.416;2022-07-17T09:24:02;8.07;;;7.28;;
15177;SDS011;7689;53.612;-2.416;2022-07-17T09:26:30;10.60;;;6.88;;
15177;SDS011;7689;53.612;-2.416;2022-07-17T09:28:58;7.30;;;6.60;;
15177;SDS011;7689;53.612;-2.416;2022-07-17T09:31:26;8.65;;;6.50;;
15177;SDS011;7689;53.612;-2.416;2022-07-17T09:33:53;7.93;;;7.13;;
15177;SDS011;7689;53.612;-2.416;2022-07-17T09:36:20;7.53;;;6.82;;
15177;SDS011;7689;53.612;-2.416;2022-07-17T09:38:45;8.20;;;7.22;;
15177;SDS011;7689;53.612;-2.416;2022-07-17T09:41:12;7.15;;;6.45;;
15177;SDS011;7689;53.612;-2.416;2022-07-17T09:46:09;7.93;;;7.13;;
15177;SDS011;7689;53.612;-2.416;2022-07-17T09:48:42;7.40;;;6.75;;
15177;SDS011;7689;53.612;-2.416;2022-07-17T09:51:15;7.70;;;7.00;;
15177;SDS011;7689;53.612;-2.416;2022-07-17T09:53:46;8.93;;;7.10;;
15177;SDS011;7689;53.612;-2.416;2022-07-17T09:56:16;8.80;;;6.97;;
15177;SDS011;7689;53.612;-2.416;2022-07-17T09:58:48;8.75;;;7.05;;
15177;SDS011;7689;53.612;-2.416;2022-07-17T10:01:15;8.32;;;7.13;;
15177;SDS011;7689;53.612;-2.416;2022-07-17T10:03:42;10.02;;;6.88;;
15177;SDS011;7689;53.612;-2.416;2022-07-17T10:06:09;7.40;;;6.80;;
15177;SDS011;7689;53.612;-2.416;2022-07-17T10:08:36;7.32;;;6.60;;
15177;SDS011;7689;53.612;-2.416;2022-07-17T10:11:09;8.13;;;6.88;;
15177;SDS011;7689;53.612;-2.416;2022-07-17T10:13:39;7.40;;;6.80;;
15177;SDS011;7689;53.612;-2.416;2022-07-17T10:16:06;7.93;;;7.13;;
15177;SDS011;7689;53.612;-2.416;2022-07-17T10:18:37;8.80;;;7.22;;
15177;SDS011;7689;53.612;-2.416;2022-07-17T10:21:16;7.85;;;7.15;;
15177;SDS011;7689;53.612;-2.416;2022-07-17T10:23:47;8.57;;;7.78;;
15177;SDS011;7689;53.612;-2.416;2022-07-17T10:26:37;7.75;;;6.90;;
15177;SDS011;7689;53.612;-2.416;2022-07-17T10:29:07;9.48;;;7.25;;
15177;SDS011;7689;53.612;-2.416;2022-07-17T10:31:34;8.13;;;7.32;;
15177;SDS011;7689;53.612;-2.416;2022-07-17T10:34:03;7.55;;;6.95;;
15177;SDS011;7689;53.612;-2.416;2022-07-17T10:41:41;7.28;;;6.57;;
15177;SDS011;7689;53.612;-2.416;2022-07-17T10:44:07;7.68;;;6.90;;
15177;SDS011;7689;53.612;-2.416;2022-07-17T10:46:34;7.82;;;7.13;;
15177;SDS011;7689;53.612;-2.416;2022-07-17T10:49:00;7.95;;;7.07;;
15177;SDS011;7689;53.612;-2.416;2022-07-17T10:51:30;8.07;;;7.28;;
15177;SDS011;7689;53.612;-2.416;2022-07-17T10:53:57;7.47;;;6.70;;
15177;SDS011;7689;53.612;-2.416;2022-07-17T10:56:24;8.07;;;7.15;;
15177;SDS011;7689;53.612;-2.416;2022-07-17T10:58:50;10.20;;;6.82;;
15177;SDS011;7689;53.612;-2.416;2022-07-17T11:01:18;9.23;;;7.28;;
15177;SDS011;7689;53.612;-2.416;2022-07-17T11:06:21;7.22;;;6.25;;
15177;SDS011;7689;53.612;-2.416;2022-07-17T11:08:53;6.82;;;6.25;;
15177;SDS011;7689;53.612;-2.416;2022-07-17T11:14:13;7.22;;;6.35;;
15177;SDS011;7689;53.612;-2.416;2022-07-17T11:16:44;7.35;;;6.07;;
15177;SDS011;7689;53.612;-2.416;2022-07-17T11:19:10;6.13;;;5.25;;
15177;SDS011;7689;53.612;-2.416;2022-07-17T11:21:48;6.13;;;5.53;;
15177;SDS011;7689;53.612;-2.416;2022-07-17T11:24:16;6.70;;;6.00;;
15177;SDS011;7689;53.612;-2.416;2022-07-17T11:26:42;6.63;;;6.03;;
15177;SDS011;7689;53.612;-2.416;2022-07-17T11:29:11;7.53;;;5.80;;
15177;SDS011;7689;53.612;-2.416;2022-07-17T11:31:37;5.65;;;5.15;;
15177;SDS011;7689;53.612;-2.416;2022-07-17T11:34:04;5.90;;;5.40;;
15177;SDS011;7689;53.612;-2.416;2022-07-17T11:36:40;5.93;;;5.43;;
15177;SDS011;7689;53.612;-2.416;2022-07-17T11:41:38;6.03;;;5.40;;
15177;SDS011;7689;53.612;-2.416;2022-07-17T11:44:10;5.68;;;5.18;;
15177;SDS011;7689;53.612;-2.416;2022-07-17T11:46:38;5.93;;;5.43;;
15177;SDS011;7689;53.612;-2.416;2022-07-17T11:49:06;5.95;;;5.32;;
15177;SDS011;7689;53.612;-2.416;2022-07-17T11:51:36;4.95;;;4.55;;
15177;SDS011;7689;53.612;-2.416;2022-07-17T11:54:03;5.40;;;4.90;;
15177;SDS011;7689;53.612;-2.416;2022-07-17T11:56:30;5.47;;;4.95;;
15177;SDS011;7689;53.612;-2.416;2022-07-17T11:58:56;5.15;;;4.60;;
15177;SDS011;7689;53.612;-2.416;2022-07-17T12:01:21;4.70;;;4.30;;
15177;SDS011;7689;53.612;-2.416;2022-07-17T12:03:57;7.10;;;4.20;;
15177;SDS011;7689;53.612;-2.416;2022-07-17T12:06:24;6.18;;;4.63;;
15177;SDS011;7689;53.612;-2.416;2022-07-17T12:08:54;8.27;;;4.72;;
15177;SDS011;7689;53.612;-2.416;2022-07-17T12:11:20;4.60;;;4.30;;
15177;SDS011;7689;53.612;-2.416;2022-07-17T12:13:46;4.68;;;4.20;;
15177;SDS011;7689;53.612;-2.416;2022-07-17T12:16:19;9.43;;;4.43;;
15177;SDS011;7689;53.612;-2.416;2022-07-17T12:18:57;4.43;;;4.03;;
15177;SDS011;7689;53.612;-2.416;2022-07-17T12:21:25;5.80;;;4.65;;
15177;SDS011;7689;53.612;-2.416;2022-07-17T12:23:55;4.65;;;4.15;;
15177;SDS011;7689;53.612;-2.416;2022-07-17T12:26:26;4.45;;;4.15;;
15177;SDS011;7689;53.612;-2.416;2022-07-17T12:28:53;4.88;;;4.15;;
15177;SDS011;7689;53.612;-2.416;2022-07-17T12:31:19;4.22;;;3.72;;
15177;SDS011;7689;53.612;-2.416;2022-07-17T12:33:45;5.50;;;4.40;;
15177;SDS011;7689;53.612;-2.416;2022-07-17T12:36:12;4.78;;;4.38;;
15177;SDS011;7689;53.612;-2.416;2022-07-17T12:38:38;4.60;;;4.20;;
15177;SDS011;7689;53.612;-2.416;2022-07-17T12:41:03;4.60;;;4.18;;
15177;SDS011;7689;53.612;-2.416;2022-07-17T12:43:30;4.70;;;4.20;;
15177;SDS011;7689;53.612;-2.416;2022-07-17T12:45:56;4.60;;;4.13;;
15177;SDS011;7689;53.612;-2.416;2022-07-17T12:48:21;4.60;;;4.10;;
15177;SDS011;7689;53.612;-2.416;2022-07-17T12:50:47;4.50;;;4.10;;
15177;SDS011;7689;53.612;-2.416;2022-07-17T12:53:13;4.00;;;3.75;;
15177;SDS011;7689;53.612;-2.416;2022-07-17T12:55:38;4.95;;;3.90;;
15177;SDS011;7689;53.612;-2.416;2022-07-17T12:58:04;4.18;;;3.80;;
15177;SDS011;7689;53.612;-2.416;2022-07-17T13:00:30;4.75;;;4.13;;
15177;SDS011;7689;53.612;-2.416;2022-07-17T13:02:56;4.57;;;4.18;;
15177;SDS011;7689;53.612;-2.416;2022-07-17T13:05:22;6.35;;;4.15;;
15177;SDS011;7689;53.612;-2.416;2022-07-17T13:07:48;4.45;;;3.95;;
15177;SDS011;7689;53.612;-2.416;2022-07-17T13:10:14;6.70;;;3.60;;
15177;SDS011;7689;53.612;-2.416;2022-07-17T13:12:40;3.95;;;3.70;;
15177;SDS011;7689;53.612;-2.416;2022-07-17T13:15:06;4.35;;;3.80;;
15177;SDS011;7689;53.612;-2.416;2022-07-17T13:17:33;5.63;;;4.60;;
15177;SDS011;7689;53.612;-2.416;2022-07-17T13:19:58;4.13;;;3.83;;
15177;SDS011;7689;53.612;-2.416;2022-07-17T13:22:24;4.30;;;4.00;;
15177;SDS011;7689;53.612;-2.416;2022-07-17T13:24:49;4.07;;;3.78;;
15177;SDS011;7689;53.612;-2.416;2022-07-17T13:27:15;4.15;;;3.85;;
15177;SDS011;7689;53.612;-2.416;2022-07-17T13:29:41;4.00;;;3.70;;
15177;SDS011;7689;53.612;-2.416;2022-07-17T13:32:06;4.40;;;4.10;;
15177;SDS011;7689;53.612;-2.416;2022-07-17T13:34:32;5.03;;;3.60;;
15177;SDS011;7689;53.612;-2.416;2022-07-17T13:36:57;4.15;;;3.63;;
15177;SDS011;7689;53.612;-2.416;2022-07-17T13:39:23;4.03;;;3.72;;
15177;SDS011;7689;53.612;-2.416;2022-07-17T13:41:49;4.10;;;3.75;;
15177;SDS011;7689;53.612;-2.416;2022-07-17T13:44:15;4.82;;;4.30;;
15177;SDS011;7689;53.612;-2.416;2022-07-17T13:46:41;5.72;;;4.10;;
15177;SDS011;7689;53.612;-2.416;2022-07-17T13:49:06;4.53;;;4.15;;
15177;SDS011;7689;53.612;-2.416;2022-07-17T13:51:32;3.92;;;3.53;;
15177;SDS011;7689;53.612;-2.416;2022-07-17T13:54:00;4.07;;;3.78;;
15177;SDS011;7689;53.612;-2.416;2022-07-17T13:56:26;4.38;;;3.97;;
15177;SDS011;7689;53.612;-2.416;2022-07-17T13:58:52;4.60;;;4.20;;
15177;SDS011;7689;53.612;-2.416;2022-07-17T14:01:18;4.78;;;4.38;;
15177;SDS011;7689;53.612;-2.416;2022-07-17T14:03:44;5.35;;;3.83;;
15177;SDS011;7689;53.612;-2.416;2022-07-17T14:06:10;4.35;;;3.97;;
15177;SDS011;7689;53.612;-2.416;2022-07-17T14:08:35;4.90;;;4.50;;
15177;SDS011;7689;53.612;-2.416;2022-07-17T14:11:02;4.38;;;4.07;;
15177;SDS011;7689;53.612;-2.416;2022-07-17T14:13:28;4.18;;;3.88;;
15177;SDS011;7689;53.612;-2.416;2022-07-17T14:15:55;4.32;;;4.00;;
15177;SDS011;7689;53.612;-2.416;2022-07-17T14:18:21;4.97;;;4.20;;
15177;SDS011;7689;53.612;-2.416;2022-07-17T14:20:47;4.85;;;4.45;;
15177;SDS011;7689;53.612;-2.416;2022-07-17T14:23:12;4.28;;;3.90;;
15177;SDS011;7689;53.612;-2.416;2022-07-17T14:25:38;4.50;;;4.10;;
15177;SDS011;7689;53.612;-2.416;2022-07-17T14:28:04;4.95;;;4.50;;
15177;SDS011;7689;53.612;-2.416;2022-07-17T14:30:29;6.03;;;5.53;;
15177;SDS011;7689;53.612;-2.416;2022-07-17T14:32:57;4.70;;;4.30;;
15177;SDS011;7689;53.612;-2.416;2022-07-17T14:35:23;4.97;;;4.47;;
15177;SDS011;7689;53.612;-2.416;2022-07-17T14:37:49;4.70;;;4.30;;
15177;SDS011;7689;53.612;-2.416;2022-07-17T14:40:14;13.38;;;9.57;;
15177;SDS011;7689;53.612;-2.416;2022-07-17T14:42:40;9.50;;;8.48;;
15177;SDS011;7689;53.612;-2.416;2022-07-17T14:45:07;4.78;;;4.10;;
15177;SDS011;7689;53.612;-2.416;2022-07-17T14:47:33;4.70;;;4.30;;
15177;SDS011;7689;53.612;-2.416;2022-07-17T14:49:59;4.88;;;4.47;;
15177;SDS011;7689;53.612;-2.416;2022-07-17T14:52:25;6.97;;;6.30;;
15177;SDS011;7689;53.612;-2.416;2022-07-17T14:54:51;4.57;;;4.28;;
15177;SDS011;7689;53.612;-2.416;2022-07-17T14:57:16;5.43;;;4.28;;
15177;SDS011;7689;53.612;-2.416;2022-07-17T14:59:42;4.53;;;4.22;;
15177;SDS011;7689;53.612;-2.416;2022-07-17T15:02:08;8.45;;;4.60;;